Time;durP1;ratioP1;P1;durP2;ratioP2;P2;SDS_P1;SDS_P2;PMS_P1;PMS_P2;Temp;Humidity;BMP_temperature;BMP_pressure;BME280_temperature;BME280_humidity;BME280_pressure;Samples;Min_cycle;Max_cycle;Signal;HPM_P1;HPM_P2
2022/07/05 00:00:04;;;;;;;1.47;0.90;;;18.80;91.70;;;;;;5011201;28;20519;-75
2022/07/05 00:02:31;;;;;;;1.47;1.00;;;18.70;92.10;;;;;;5011023;28;20479;-76
2022/07/05 00:04:58;;;;;;;1.43;0.97;;;18.70;92.40;;;;;;5011701;28;20467;-76
2022/07/05 00:07:25;;;;;;;1.47;0.90;;;18.70;92.40;;;;;;5011694;28;20971;-76
2022/07/05 00:09:54;;;;;;;1.50;0.90;;;18.70;91.90;;;;;;5012064;28;20484;-76
2022/07/05 00:12:24;;;;;;;1.47;0.90;;;18.60;92.70;;;;;;5010343;28;20523;-76
2022/07/05 00:14:53;;;;;;;1.47;1.00;;;18.60;92.70;;;;;;5012847;28;21085;-76
2022/07/05 00:17:20;;;;;;;1.40;0.90;;;18.60;92.50;;;;;;4998653;28;20865;-76
2022/07/05 00:19:46;;;;;;;1.40;0.90;;;18.50;92.10;;;;;;5009540;28;20519;-77
2022/07/05 00:22:13;;;;;;;1.43;0.90;;;18.50;91.70;;;;;;5009030;28;20460;-76
2022/07/05 00:24:41;;;;;;;1.47;1.00;;;18.50;91.40;;;;;;5009218;28;20832;-76
2022/07/05 00:27:08;;;;;;;1.47;0.90;;;18.50;91.70;;;;;;5002055;28;20461;-76
2022/07/05 00:29:35;;;;;;;1.43;0.90;;;18.40;91.40;;;;;;5009227;28;20635;-76
2022/07/05 00:32:04;;;;;;;1.43;0.90;;;18.40;91.90;;;;;;5008087;28;20487;-76
2022/07/05 00:34:31;;;;;;;1.40;0.90;;;18.40;91.60;;;;;;5011399;28;20891;-76
2022/07/05 00:36:58;;;;;;;1.47;0.90;;;18.40;91.10;;;;;;5009481;28;20460;-76
2022/07/05 00:39:26;;;;;;;1.47;0.90;;;18.40;91.10;;;;;;5010096;28;20487;-76
2022/07/05 00:41:53;;;;;;;1.47;0.90;;;18.30;91.00;;;;;;5000383;28;20500;-76
2022/07/05 00:44:30;;;;;;;1.47;0.90;;;18.30;90.70;;;;;;5008785;28;20475;-76
2022/07/05 00:46:57;;;;;;;1.43;0.90;;;18.30;91.20;;;;;;5007257;28;20463;-76
2022/07/05 00:49:25;;;;;;;1.47;0.90;;;18.20;90.80;;;;;;5009458;28;20519;-76
2022/07/05 00:51:52;;;;;;;1.43;0.93;;;18.20;91.00;;;;;;5006390;28;20865;-76
2022/07/05 00:54:19;;;;;;;1.47;0.90;;;18.20;91.10;;;;;;5003878;28;20862;-76
2022/07/05 00:56:47;;;;;;;1.43;0.90;;;18.20;91.10;;;;;;5004103;28;20487;-76
2022/07/05 00:59:13;;;;;;;1.50;1.00;;;18.10;91.10;;;;;;5016559;28;20484;-76
2022/07/05 01:01:40;;;;;;;1.50;0.90;;;18.10;90.90;;;;;;4999751;28;20564;-76
2022/07/05 01:04:07;;;;;;;1.43;1.00;;;18.10;91.10;;;;;;5003166;28;20448;-76
2022/07/05 01:06:36;;;;;;;1.47;1.00;;;18.00;91.20;;;;;;5005121;28;20497;-76
2022/07/05 01:09:03;;;;;;;1.47;0.90;;;18.00;91.40;;;;;;5018454;28;20635;-76
2022/07/05 01:11:30;;;;;;;1.47;0.90;;;18.00;92.30;;;;;;5007269;28;20467;-76
2022/07/05 01:13:59;;;;;;;1.40;0.90;;;17.90;92.20;;;;;;5008076;28;20575;-78
2022/07/05 01:16:27;;;;;;;1.43;0.90;;;17.90;92.40;;;;;;5002802;28;20491;-76
2022/07/05 01:18:54;;;;;;;1.43;0.90;;;17.80;92.80;;;;;;5009840;28;20893;-76
2022/07/05 01:21:24;;;;;;;1.50;0.90;;;17.80;93.00;;;;;;4991940;28;20543;-76
2022/07/05 01:23:52;;;;;;;1.43;1.00;;;17.80;93.10;;;;;;5008453;28;20464;-76
2022/07/05 01:26:20;;;;;;;1.43;0.90;;;17.80;93.20;;;;;;4995148;28;20482;-76
2022/07/05 01:28:47;;;;;;;1.43;0.90;;;17.70;93.40;;;;;;5018305;28;20491;-76
2022/07/05 01:31:13;;;;;;;1.43;0.90;;;17.70;92.80;;;;;;4997392;28;20563;-75
2022/07/05 01:33:40;;;;;;;1.40;0.93;;;17.70;94.00;;;;;;5012474;28;20492;-76
2022/07/05 01:36:08;;;;;;;1.47;0.90;;;17.70;93.60;;;;;;4993618;28;20473;-76
2022/07/05 01:38:35;;;;;;;1.47;0.90;;;17.70;93.90;;;;;;5021078;28;20480;-76
2022/07/05 01:41:04;;;;;;;1.47;0.90;;;17.60;94.10;;;;;;4991603;28;20469;-76
2022/07/05 01:43:31;;;;;;;1.47;0.90;;;17.60;93.40;;;;;;4991253;28;20519;-75
2022/07/05 01:46:00;;;;;;;1.50;0.90;;;17.60;94.20;;;;;;4993612;28;20457;-76
2022/07/05 01:48:29;;;;;;;1.43;0.90;;;17.60;94.40;;;;;;5001989;28;20661;-77
2022/07/05 01:51:04;;;;;;;1.47;0.90;;;17.60;94.70;;;;;;4989061;28;20555;-77
2022/07/05 01:53:33;;;;;;;1.43;1.00;;;17.50;94.60;;;;;;5023160;28;20466;-77
2022/07/05 01:56:01;;;;;;;1.47;0.90;;;17.50;95.10;;;;;;5010725;28;20486;-76
2022/07/05 01:58:30;;;;;;;1.40;0.93;;;17.50;95.00;;;;;;5007082;28;20475;-77
2022/07/05 02:00:59;;;;;;;1.47;0.90;;;17.40;94.50;;;;;;4994019;28;20568;-77
2022/07/05 02:03:26;;;;;;;1.50;0.90;;;17.40;95.00;;;;;;5016731;28;20484;-77
2022/07/05 02:05:54;;;;;;;1.40;0.90;;;17.40;95.20;;;;;;4989707;28;20984;-76
2022/07/05 02:08:22;;;;;;;1.50;1.00;;;17.40;95.30;;;;;;5025781;28;20579;-77
2022/07/05 02:10:49;;;;;;;1.43;0.90;;;17.40;95.00;;;;;;5011062;28;20464;-76
2022/07/05 02:13:15;;;;;;;1.43;0.90;;;17.40;95.60;;;;;;4997737;28;20539;-75
2022/07/05 02:15:44;;;;;;;1.47;0.90;;;17.40;95.60;;;;;;5010999;28;20873;-75
2022/07/05 02:18:11;;;;;;;1.40;0.90;;;17.50;94.90;;;;;;5015533;28;20486;-75
2022/07/05 02:20:40;;;;;;;1.40;0.90;;;17.50;94.80;;;;;;5011244;28;20562;-75
2022/07/05 02:23:07;;;;;;;1.40;0.90;;;17.60;94.70;;;;;;5008773;28;20456;-74
2022/07/05 02:25:35;;;;;;;1.43;0.90;;;17.60;95.50;;;;;;5010776;28;20540;-75
2022/07/05 02:28:02;;;;;;;1.47;0.90;;;17.60;95.50;;;;;;5014693;28;20521;-75
2022/07/05 02:30:29;;;;;;;1.43;0.90;;;17.60;95.00;;;;;;5010976;28;20468;-76
2022/07/05 02:32:58;;;;;;;1.50;0.90;;;17.60;94.80;;;;;;5014156;28;20544;-76
2022/07/05 02:35:25;;;;;;;1.40;0.90;;;17.60;94.90;;;;;;4999349;28;20484;-76
2022/07/05 02:37:52;;;;;;;1.40;0.97;;;17.50;95.70;;;;;;5016111;28;20861;-76
2022/07/05 02:40:19;;;;;;;1.43;0.90;;;17.50;95.10;;;;;;5010467;28;20482;-76
2022/07/05 02:42:45;;;;;;;1.47;0.90;;;17.40;94.90;;;;;;5014801;28;20491;-76
2022/07/05 02:45:14;;;;;;;1.47;0.90;;;17.40;95.30;;;;;;5009238;28;20471;-77
2022/07/05 02:47:41;;;;;;;1.47;0.90;;;17.40;94.60;;;;;;5015655;28;20493;-76
2022/07/05 02:50:11;;;;;;;1.47;0.90;;;17.40;95.60;;;;;;5011309;28;20527;-76
2022/07/05 02:52:38;;;;;;;1.40;0.90;;;17.30;95.60;;;;;;4995873;28;20684;-76
2022/07/05 02:55:07;;;;;;;1.43;0.93;;;17.30;95.60;;;;;;4991066;28;20695;-76
2022/07/05 02:57:33;;;;;;;1.43;0.90;;;17.30;95.70;;;;;;5009886;28;20580;-76
2022/07/05 03:00:01;;;;;;;1.43;0.90;;;17.30;95.90;;;;;;5012345;28;20541;-77
2022/07/05 03:02:27;;;;;;;1.40;0.90;;;17.30;96.60;;;;;;4997401;28;20456;-76
2022/07/05 03:04:55;;;;;;;1.40;0.90;;;17.40;97.10;;;;;;4990592;28;20548;-77
2022/07/05 03:07:23;;;;;;;1.47;0.90;;;17.40;96.30;;;;;;4996854;28;20500;-77
2022/07/05 03:09:50;;;;;;;1.40;0.90;;;17.40;96.40;;;;;;5009544;28;20488;-76
2022/07/05 03:12:17;;;;;;;1.47;1.00;;;17.50;95.30;;;;;;5011556;28;20765;-77
2022/07/05 03:14:44;;;;;;;1.50;1.00;;;17.40;95.60;;;;;;4998535;28;20489;-77
2022/07/05 03:17:11;;;;;;;1.43;0.90;;;17.40;95.60;;;;;;5000528;28;20562;-76
2022/07/05 03:19:38;;;;;;;1.50;1.00;;;17.40;96.10;;;;;;5014104;28;20486;-76
2022/07/05 03:22:05;;;;;;;1.40;0.90;;;17.40;96.80;;;;;;5008427;28;20546;-76
2022/07/05 03:24:34;;;;;;;1.47;0.90;;;17.40;96.40;;;;;;5010579;28;20479;-77
2022/07/05 03:27:01;;;;;;;1.40;0.90;;;17.40;96.20;;;;;;5009697;28;20904;-77
2022/07/05 03:29:28;;;;;;;1.43;0.90;;;17.40;96.60;;;;;;5015721;28;20483;-77
2022/07/05 03:31:55;;;;;;;1.47;0.90;;;17.40;96.70;;;;;;5008254;28;20483;-77
2022/07/05 03:34:22;;;;;;;1.43;1.00;;;17.30;97.00;;;;;;5010260;28;20479;-78
2022/07/05 03:36:49;;;;;;;1.47;0.90;;;17.30;96.50;;;;;;5004030;28;20566;-76
2022/07/05 03:39:16;;;;;;;1.43;0.90;;;17.30;96.80;;;;;;5017097;28;20541;-76
2022/07/05 03:41:44;;;;;;;1.40;0.90;;;17.30;96.50;;;;;;4996909;28;20937;-77
2022/07/05 03:44:12;;;;;;;1.50;1.20;;;17.20;96.70;;;;;;5006806;28;20492;-77
2022/07/05 03:46:39;;;;;;;1.47;0.90;;;17.20;97.10;;;;;;4997432;28;20936;-78
2022/07/05 03:49:06;;;;;;;1.43;0.97;;;17.10;97.00;;;;;;5008930;28;20531;-77
2022/07/05 03:51:33;;;;;;;1.50;1.00;;;17.10;97.40;;;;;;5002617;28;20487;-77
2022/07/05 03:54:00;;;;;;;1.50;0.90;;;17.10;96.70;;;;;;5018597;28;20456;-77
2022/07/05 03:56:27;;;;;;;1.43;0.93;;;17.20;97.40;;;;;;5005763;28;20527;-77
2022/07/05 03:58:56;;;;;;;1.43;1.00;;;17.20;97.00;;;;;;4990322;28;20883;-77
2022/07/05 04:01:23;;;;;;;1.47;0.90;;;17.30;97.50;;;;;;4988976;28;20493;-77
2022/07/05 04:03:50;;;;;;;1.43;1.00;;;17.30;97.30;;;;;;5020484;28;20464;-78
2022/07/05 04:06:17;;;;;;;1.47;0.90;;;17.40;97.40;;;;;;5009515;28;20470;-76
2022/07/05 04:08:44;;;;;;;1.43;1.00;;;17.40;97.40;;;;;;5005333;28;20490;-76
2022/07/05 04:11:12;;;;;;;1.43;0.90;;;17.40;97.50;;;;;;4997979;28;20472;-77
2022/07/05 04:13:40;;;;;;;1.43;1.00;;;17.40;97.10;;;;;;5007162;28;20963;-77
2022/07/05 04:16:08;;;;;;;1.40;0.90;;;17.40;97.60;;;;;;5000376;28;20902;-77
2022/07/05 04:18:35;;;;;;;1.40;0.90;;;17.40;97.10;;;;;;5021166;28;20574;-77
2022/07/05 04:21:03;;;;;;;1.40;0.90;;;17.40;97.20;;;;;;4999770;28;20878;-77
2022/07/05 04:23:30;;;;;;;1.47;0.90;;;17.40;97.50;;;;;;5024000;28;21010;-78
2022/07/05 04:25:57;;;;;;;1.50;1.00;;;17.40;97.40;;;;;;5008340;28;20514;-77
2022/07/05 04:28:24;;;;;;;1.47;0.90;;;17.40;97.20;;;;;;5006922;28;20506;-77
2022/07/05 04:30:51;;;;;;;1.40;0.90;;;17.40;97.30;;;;;;4998215;28;20468;-77
2022/07/05 04:33:19;;;;;;;1.43;0.90;;;17.40;96.90;;;;;;5022336;28;20468;-77
2022/07/05 04:35:46;;;;;;;1.50;0.90;;;17.50;97.20;;;;;;5008136;28;20492;-77
2022/07/05 04:38:13;;;;;;;1.43;0.90;;;17.50;96.90;;;;;;5005951;28;20481;-77
2022/07/05 04:40:40;;;;;;;1.47;0.90;;;17.60;96.60;;;;;;5009240;28;21003;-76
2022/07/05 04:43:07;;;;;;;1.43;0.90;;;17.70;96.90;;;;;;5007786;28;20935;-77
2022/07/05 04:45:35;;;;;;;1.40;0.90;;;17.70;97.30;;;;;;5006706;28;20453;-77
2022/07/05 04:48:02;;;;;;;1.47;0.90;;;17.80;97.30;;;;;;5008845;28;20487;-77
2022/07/05 04:50:30;;;;;;;1.47;0.90;;;18.00;97.40;;;;;;5001152;28;21000;-77
2022/07/05 04:52:57;;;;;;;1.50;0.90;;;18.10;97.00;;;;;;5006777;28;20574;-77
2022/07/05 04:55:25;;;;;;;1.50;1.00;;;18.30;96.00;;;;;;5008577;28;20488;-77
2022/07/05 04:57:52;;;;;;;1.50;0.90;;;18.50;95.90;;;;;;5006614;28;20483;-76
2022/07/05 05:00:19;;;;;;;1.47;1.00;;;18.80;95.00;;;;;;5008131;28;20530;-77
2022/07/05 05:02:46;;;;;;;1.47;0.90;;;19.00;93.20;;;;;;5002540;28;20549;-78
2022/07/05 05:05:13;;;;;;;1.47;0.90;;;19.10;92.40;;;;;;5008422;28;20483;-77
2022/07/05 05:07:45;;;;;;;1.50;0.90;;;19.20;91.80;;;;;;4992936;28;20460;-77
2022/07/05 05:10:12;;;;;;;1.43;0.90;;;19.20;92.80;;;;;;5007122;28;20876;-78
2022/07/05 05:12:40;;;;;;;1.43;0.90;;;19.40;93.60;;;;;;5007634;28;20584;-77
2022/07/05 05:15:09;;;;;;;1.47;1.00;;;19.60;93.20;;;;;;4993082;28;20564;-79
2022/07/05 05:17:38;;;;;;;1.50;0.90;;;19.70;91.30;;;;;;5001909;28;20579;-81
2022/07/05 05:20:07;;;;;;;1.43;0.90;;;19.80;88.10;;;;;;5005351;28;20485;-79
2022/07/05 05:22:34;;;;;;;1.50;0.90;;;20.00;89.40;;;;;;5009329;28;20491;-82
2022/07/05 05:25:03;;;;;;;1.47;0.90;;;20.20;87.00;;;;;;5007658;28;20527;-80
2022/07/05 05:27:30;;;;;;;1.50;0.90;;;20.50;87.10;;;;;;5014064;28;20487;-80
2022/07/05 05:29:57;;;;;;;1.40;0.90;;;20.60;86.50;;;;;;5005627;28;20868;-80
2022/07/05 05:32:24;;;;;;;1.40;0.90;;;20.90;86.70;;;;;;5011367;28;20547;-81
2022/07/05 05:34:51;;;;;;;1.43;0.90;;;21.10;86.30;;;;;;4999813;28;20525;-80
2022/07/05 05:37:19;;;;;;;1.47;0.90;;;21.30;85.10;;;;;;5002897;28;20480;-80
2022/07/05 05:39:46;;;;;;;1.47;0.93;;;21.40;84.20;;;;;;4997996;28;21001;-85
2022/07/05 05:42:14;;;;;;;1.47;0.90;;;21.60;84.40;;;;;;5015478;28;20494;-80
2022/07/05 05:44:44;;;;;;;1.43;0.90;;;21.80;83.80;;;;;;5021762;28;20757;-82
2022/07/05 05:47:14;;;;;;;1.50;0.90;;;22.00;83.70;;;;;;5009947;28;21060;-81
2022/07/05 05:49:41;;;;;;;1.50;0.90;;;22.00;83.90;;;;;;5002530;28;20512;-83
2022/07/05 05:52:08;;;;;;;1.47;0.90;;;22.00;84.90;;;;;;5007349;28;20631;-85
2022/07/05 05:54:35;;;;;;;1.40;0.90;;;22.20;82.90;;;;;;5006436;28;20953;-80
2022/07/05 05:57:05;;;;;;;1.50;0.90;;;22.30;82.10;;;;;;5008533;28;20520;-82
2022/07/05 05:59:33;;;;;;;1.47;0.90;;;22.30;81.70;;;;;;5003130;28;20511;-79
2022/07/05 06:02:00;;;;;;;1.50;0.90;;;22.40;82.00;;;;;;4992404;28;20579;-79
2022/07/05 06:04:27;;;;;;;1.50;0.90;;;22.50;83.30;;;;;;4998173;28;20472;-79
2022/07/05 06:06:54;;;;;;;1.50;0.90;;;22.60;83.00;;;;;;4993341;28;21048;-80
2022/07/05 06:09:21;;;;;;;1.50;0.90;;;22.70;83.90;;;;;;4994659;28;20488;-81
2022/07/05 06:11:48;;;;;;;1.50;0.90;;;22.90;82.50;;;;;;4992379;28;20511;-79
2022/07/05 06:14:15;;;;;;;1.43;0.90;;;23.20;81.80;;;;;;5005087;28;20527;-81
2022/07/05 06:16:43;;;;;;;1.43;0.90;;;23.40;82.00;;;;;;4993824;28;20521;-78
2022/07/05 06:19:10;;;;;;;1.50;0.90;;;23.60;80.80;;;;;;4991082;28;20564;-79
2022/07/05 06:21:37;;;;;;;1.47;0.90;;;23.70;80.30;;;;;;4994723;28;20467;-81
2022/07/05 06:24:04;;;;;;;1.43;0.90;;;23.90;80.00;;;;;;4996379;28;20465;-80
2022/07/05 06:26:34;;;;;;;1.43;0.90;;;23.90;79.60;;;;;;4989897;28;20492;-79
2022/07/05 06:29:01;;;;;;;1.47;0.83;;;23.90;79.70;;;;;;5013626;28;20489;-80
2022/07/05 06:31:28;;;;;;;1.47;0.90;;;24.10;79.50;;;;;;5003664;28;20902;-80
2022/07/05 06:33:57;;;;;;;1.50;1.00;;;24.30;78.10;;;;;;5014557;28;20933;-80
2022/07/05 06:36:24;;;;;;;1.50;0.90;;;24.50;78.60;;;;;;5008232;28;20483;-80
2022/07/05 06:38:51;;;;;;;1.50;0.87;;;24.80;77.80;;;;;;5016718;28;20744;-81
2022/07/05 06:41:21;;;;;;;1.50;0.90;;;24.90;76.90;;;;;;5013302;28;20464;-81
2022/07/05 06:43:48;;;;;;;1.50;0.90;;;25.00;77.10;;;;;;5002501;28;20522;-81
2022/07/05 06:46:15;;;;;;;1.97;1.57;;;25.00;77.00;;;;;;4991132;28;20511;-81
2022/07/05 06:48:44;;;;;;;1.50;0.90;;;25.00;77.10;;;;;;5024929;28;21053;-81
2022/07/05 06:51:13;;;;;;;1.47;0.80;;;25.10;76.60;;;;;;4996298;28;20479;-81
2022/07/05 06:53:40;;;;;;;1.50;0.83;;;25.40;75.30;;;;;;5004818;28;20462;-80
2022/07/05 06:56:10;;;;;;;1.50;0.90;;;25.70;75.40;;;;;;4993353;28;20508;-82
2022/07/05 06:58:40;;;;;;;1.50;0.83;;;25.90;75.40;;;;;;5013577;28;20480;-81
2022/07/05 07:01:07;;;;;;;1.60;1.17;;;26.00;75.40;;;;;;5008057;28;21997;-80
2022/07/05 07:03:35;;;;;;;1.50;0.90;;;26.10;75.00;;;;;;5026385;28;20739;-80
2022/07/05 07:06:02;;;;;;;1.47;0.90;;;26.30;74.90;;;;;;5012773;28;20459;-80
2022/07/05 07:11:18;;;;;;;1.50;0.90;;;26.40;71.90;;;;;;4996946;28;20462;-81
2022/07/05 07:13:45;;;;;;;1.47;0.80;;;26.50;71.30;;;;;;5015156;28;20892;-81
2022/07/05 07:16:12;;;;;;;1.50;0.80;;;26.70;71.90;;;;;;5008390;28;21040;-83
2022/07/05 07:18:39;;;;;;;1.43;0.80;;;26.80;71.20;;;;;;5024847;28;20915;-80
2022/07/05 07:21:10;;;;;;;1.40;0.90;;;27.00;70.20;;;;;;5011356;28;20942;-79
2022/07/05 07:23:39;;;;;;;1.40;0.90;;;27.00;68.50;;;;;;5014038;28;20546;-79
2022/07/05 07:26:06;;;;;;;1.40;0.80;;;27.10;67.80;;;;;;5008073;28;20550;-82
2022/07/05 07:28:36;;;;;;;1.50;0.90;;;27.30;68.30;;;;;;5027519;28;20546;-80
2022/07/05 07:31:04;;;;;;;1.47;0.90;;;27.40;67.80;;;;;;5005707;28;20456;-81
2022/07/05 07:33:31;;;;;;;1.50;1.00;;;27.40;68.20;;;;;;5024509;28;20467;-81
2022/07/05 07:36:04;;;;;;;1.50;0.87;;;27.40;68.30;;;;;;5001445;28;20457;-81
2022/07/05 07:38:31;;;;;;;1.50;0.90;;;27.50;67.50;;;;;;4996244;28;21063;-80
2022/07/05 07:41:00;;;;;;;1.43;0.90;;;27.70;67.20;;;;;;4985162;28;20502;-81
2022/07/05 07:43:27;;;;;;;1.50;0.80;;;27.90;67.50;;;;;;4995628;28;20465;-81
2022/07/05 07:45:54;;;;;;;1.43;0.80;;;27.90;66.50;;;;;;4997852;28;20484;-79
2022/07/05 07:48:21;;;;;;;1.50;0.90;;;27.90;67.10;;;;;;5014858;28;20495;-79
2022/07/05 07:50:54;;;;;;;1.43;0.83;;;27.80;65.00;;;;;;5012473;28;20491;-77
2022/07/05 07:53:21;;;;;;;1.40;0.80;;;27.60;66.30;;;;;;5022518;28;20476;-79
2022/07/05 07:55:49;;;;;;;1.47;0.80;;;27.60;65.50;;;;;;4990902;28;20456;-79
2022/07/05 07:58:18;;;;;;;1.47;0.80;;;27.80;67.90;;;;;;5024036;28;20563;-79
2022/07/05 08:00:45;;;;;;;1.47;0.83;;;27.80;66.20;;;;;;4994925;28;20472;-78
2022/07/05 08:03:12;;;;;;;1.47;0.90;;;27.70;65.90;;;;;;4985365;28;20473;-78
2022/07/05 08:05:39;;;;;;;1.47;0.80;;;27.70;67.40;;;;;;4994812;28;20907;-82
2022/07/05 08:08:07;;;;;;;1.47;0.80;;;27.90;66.20;;;;;;4997460;28;20925;-79
2022/07/05 08:10:34;;;;;;;1.40;0.90;;;28.10;65.10;;;;;;4995611;28;20465;-80
2022/07/05 08:13:01;;;;;;;2.20;1.13;;;28.20;63.10;;;;;;5016414;28;20611;-78
2022/07/05 08:15:30;;;;;;;1.50;0.90;;;28.10;63.70;;;;;;5013310;28;20470;-79
2022/07/05 08:23:26;;;;;;;1.43;0.80;;;28.00;63.80;;;;;;5006293;28;20511;-79
2022/07/05 08:25:53;;;;;;;1.43;0.90;;;28.00;65.30;;;;;;4986959;28;20498;-79
2022/07/05 08:28:20;;;;;;;1.43;0.80;;;28.10;63.90;;;;;;5029326;28;20492;-79
2022/07/05 08:30:49;;;;;;;1.50;0.90;;;28.20;61.50;;;;;;5007640;28;20838;-78
2022/07/05 08:33:15;;;;;;;1.43;0.80;;;28.40;64.40;;;;;;5029494;28;20977;-79
2022/07/05 08:35:42;;;;;;;1.50;0.80;;;28.60;64.20;;;;;;5015099;28;20485;-80
2022/07/05 08:38:12;;;;;;;1.43;0.80;;;28.60;62.20;;;;;;4997645;28;21002;-79
2022/07/05 08:40:43;;;;;;;1.50;0.80;;;28.80;63.00;;;;;;4997542;28;20463;-79
2022/07/05 08:43:12;;;;;;;1.47;0.80;;;29.00;62.30;;;;;;5001970;28;20488;-80
2022/07/05 08:45:40;;;;;;;1.43;0.80;;;29.20;62.00;;;;;;4995512;28;20507;-79
2022/07/05 08:48:09;;;;;;;1.47;0.80;;;29.20;62.70;;;;;;5008751;28;20977;-76
2022/07/05 08:50:40;;;;;;;1.47;0.80;;;29.20;61.00;;;;;;5009632;28;20551;-76
2022/07/05 08:53:07;;;;;;;1.40;0.80;;;29.20;62.10;;;;;;5011596;28;20494;-76
2022/07/05 08:55:38;;;;;;;1.43;0.80;;;29.10;59.90;;;;;;4989898;28;20547;-76
2022/07/05 08:58:05;;;;;;;1.47;0.80;;;29.20;58.50;;;;;;4995542;28;20558;-77
2022/07/05 09:00:32;;;;;;;1.43;0.80;;;29.20;58.60;;;;;;4990021;28;20806;-77
2022/07/05 09:03:01;;;;;;;1.47;0.80;;;29.30;60.60;;;;;;5009134;28;20971;-77
2022/07/05 09:05:37;;;;;;;1.47;0.90;;;29.50;59.60;;;;;;5018290;28;20475;-80
2022/07/05 09:08:07;;;;;;;1.47;0.80;;;29.70;61.20;;;;;;5025256;28;20860;-81
2022/07/05 09:10:38;;;;;;;1.47;0.80;;;29.80;58.70;;;;;;5014178;28;20508;-80
2022/07/05 09:13:08;;;;;;;1.47;0.80;;;29.90;60.20;;;;;;5020555;28;20490;-80
2022/07/05 09:15:38;;;;;;;1.43;0.90;;;29.80;58.80;;;;;;5024387;28;20456;-79
2022/07/05 09:18:05;;;;;;;1.40;0.80;;;29.90;58.00;;;;;;5002168;28;20461;-79
2022/07/05 09:20:41;;;;;;;1.43;0.80;;;30.00;57.60;;;;;;5002665;28;20464;-80
2022/07/05 09:23:11;;;;;;;1.43;0.80;;;30.10;57.00;;;;;;5010109;28;20899;-79
2022/07/05 09:25:38;;;;;;;1.50;0.80;;;30.20;57.90;;;;;;5004178;28;20883;-80
2022/07/05 09:28:06;;;;;;;1.47;0.80;;;30.30;56.70;;;;;;5028988;28;20907;-79
2022/07/05 09:30:35;;;;;;;1.40;0.80;;;30.30;58.00;;;;;;5005719;28;20538;-79
2022/07/05 09:33:10;;;;;;;1.40;0.80;;;30.20;57.30;;;;;;4998070;28;21025;-79
2022/07/05 09:35:40;;;;;;;1.43;0.80;;;29.90;57.10;;;;;;5004417;28;20463;-78
2022/07/05 09:38:17;;;;;;;1.47;0.80;;;29.60;57.80;;;;;;4999140;28;20488;-78
2022/07/05 09:40:49;;;;;;;1.40;0.80;;;29.60;59.50;;;;;;4998371;28;21013;-78
2022/07/05 09:43:18;;;;;;;1.40;0.80;;;29.80;57.00;;;;;;5005377;28;20757;-79
2022/07/05 09:45:53;;;;;;;1.40;0.80;;;29.90;58.10;;;;;;4995937;28;20297;-79
2022/07/05 09:48:20;;;;;;;1.43;0.80;;;30.40;57.00;;;;;;4992767;28;20751;-78
2022/07/05 09:50:50;;;;;;;1.40;0.80;;;30.70;57.30;;;;;;4994397;28;20210;-78
2022/07/05 09:53:17;;;;;;;1.50;0.90;;;30.60;57.80;;;;;;5016136;28;20204;-80
2022/07/05 09:56:02;;;;;;;1.43;0.80;;;30.50;55.90;;;;;;5017937;28;20255;-79
2022/07/05 09:58:30;;;;;;;1.47;0.80;;;30.20;57.40;;;;;;5017668;28;20225;-79
2022/07/05 10:00:57;;;;;;;1.43;0.80;;;29.50;58.10;;;;;;5008902;28;20467;-80
2022/07/05 10:03:24;;;;;;;1.50;0.80;;;29.10;59.20;;;;;;5025363;28;20456;-80
2022/07/05 10:05:53;;;;;;;1.40;0.80;;;29.00;60.70;;;;;;4997536;28;20527;-81
2022/07/05 10:08:21;;;;;;;1.50;1.03;;;29.10;61.10;;;;;;4997173;28;20460;-80
2022/07/05 10:10:50;;;;;;;1.40;0.80;;;29.40;60.00;;;;;;4987603;28;20464;-79
2022/07/05 10:13:17;;;;;;;1.40;0.80;;;29.70;58.40;;;;;;4994869;28;20569;-79
2022/07/05 10:15:46;;;;;;;1.40;0.80;;;29.80;59.70;;;;;;4998639;28;20460;-79
2022/07/05 10:18:17;;;;;;;1.50;0.80;;;29.70;57.80;;;;;;4997647;28;20980;-79
2022/07/05 10:20:46;;;;;;;1.47;0.80;;;29.70;58.50;;;;;;4996801;28;20856;-80
2022/07/05 10:23:16;;;;;;;1.43;0.80;;;29.40;58.60;;;;;;5016394;28;20455;-79
2022/07/05 10:25:47;;;;;;;1.40;0.80;;;28.90;59.80;;;;;;5016750;28;20502;-80
2022/07/05 10:28:16;;;;;;;1.43;0.80;;;28.60;61.00;;;;;;5002857;28;20483;-81
2022/07/05 10:30:46;;;;;;;1.47;0.80;;;28.60;61.50;;;;;;5013792;28;20462;-79
2022/07/05 10:33:14;;;;;;;1.47;0.80;;;28.40;61.70;;;;;;4985814;28;20468;-80
2022/07/05 10:35:44;;;;;;;1.40;0.80;;;28.10;61.70;;;;;;4995333;28;20940;-79
2022/07/05 10:38:11;;;;;;;1.40;0.80;;;27.80;62.50;;;;;;4998349;28;20476;-80
2022/07/05 10:40:41;;;;;;;1.50;0.80;;;27.90;62.90;;;;;;4994883;28;20464;-79
2022/07/05 10:43:10;;;;;;;1.50;0.80;;;28.30;62.30;;;;;;5000742;28;20487;-79
2022/07/05 10:45:41;;;;;;;1.43;0.80;;;28.90;62.10;;;;;;5015306;28;20531;-79
2022/07/05 10:48:19;;;;;;;1.43;0.80;;;29.40;60.30;;;;;;5020929;28;20586;-80
2022/07/05 10:50:49;;;;;;;1.50;0.80;;;29.80;58.50;;;;;;5015378;28;20902;-80
2022/07/05 10:53:18;;;;;;;1.43;0.80;;;30.00;57.40;;;;;;4996807;28;20464;-80
2022/07/05 10:55:52;;;;;;;1.43;0.80;;;30.00;57.10;;;;;;4996971;28;20465;-79
2022/07/05 10:58:31;;;;;;;1.43;0.80;;;29.70;57.80;;;;;;5005547;28;20485;-79
2022/07/05 11:01:33;;;;;;;1.47;0.80;;;29.40;57.00;;;;;;5011521;28;20498;-82
2022/07/05 11:04:29;;;;;;;1.43;0.80;;;29.50;57.40;;;;;;5014391;28;20516;-78
2022/07/05 11:06:58;;;;;;;1.43;0.80;;;29.50;58.80;;;;;;4996465;28;20507;-78
2022/07/05 11:09:25;;;;;;;1.40;0.80;;;29.80;59.00;;;;;;5003809;28;20480;-79
2022/07/05 11:12:12;;;;;;;1.40;0.80;;;30.20;56.50;;;;;;4998380;28;20957;-78
2022/07/05 11:14:40;;;;;;;1.43;0.90;;;30.70;56.90;;;;;;4997341;28;20460;-80
2022/07/05 11:17:25;;;;;;;1.40;0.80;;;31.00;57.10;;;;;;5011108;28;20213;-79
2022/07/05 11:20:11;;;;;;;1.40;0.80;;;31.20;56.70;;;;;;5016764;28;20852;-78
2022/07/05 11:22:41;;;;;;;1.40;0.80;;;31.30;54.80;;;;;;5019967;28;20335;-80
2022/07/05 11:25:10;;;;;;;1.43;0.80;;;30.90;56.10;;;;;;5009879;28;20526;-78
2022/07/05 11:28:07;;;;;;;1.43;0.80;;;30.50;56.70;;;;;;5012589;28;20570;-78
2022/07/05 11:31:01;;;;;;;1.43;0.80;;;30.30;58.10;;;;;;5016516;28;20982;-79
2022/07/05 11:33:36;;;;;;;1.43;0.80;;;30.50;58.50;;;;;;4949171;28;20490;-78
2022/07/05 11:36:06;;;;;;;1.47;0.80;;;30.50;56.40;;;;;;4989225;28;20460;-79
2022/07/05 11:38:33;;;;;;;1.43;0.80;;;30.30;55.80;;;;;;5008925;28;20221;-79
2022/07/05 11:44:33;;;;;;;1.43;0.80;;;30.10;56.90;;;;;;4922858;28;20462;-80
2022/07/05 11:47:01;;;;;;;1.40;0.80;;;30.00;57.30;;;;;;5014949;28;20260;-78
2022/07/05 11:49:28;;;;;;;1.40;0.80;;;30.00;57.10;;;;;;5020754;28;21007;-78
2022/07/05 11:52:00;;;;;;;1.43;0.80;;;30.00;56.60;;;;;;5016079;28;20554;-80
2022/07/05 11:54:28;;;;;;;1.40;0.90;;;30.00;57.50;;;;;;5010447;28;20492;-82
2022/07/05 11:56:55;;;;;;;1.40;0.80;;;29.90;55.00;;;;;;4995709;28;20324;-78
2022/07/05 11:59:33;;;;;;;1.40;0.80;;;30.00;57.80;;;;;;5003987;28;20992;-79
2022/07/05 12:02:02;;;;;;;1.40;0.80;;;30.20;57.70;;;;;;5000224;28;20529;-80
2022/07/05 12:04:31;;;;;;;1.40;0.80;;;30.20;56.70;;;;;;5010118;28;20482;-80
2022/07/05 12:06:59;;;;;;;1.40;0.80;;;29.80;57.50;;;;;;5012262;28;20507;-79
2022/07/05 12:12:42;;;;;;;1.40;0.80;;;29.60;58.90;;;;;;5007895;28;20806;-79
2022/07/05 12:15:04;;;;;;;1.60;1.10;;;29.80;58.50;;;;;;5007390;28;20459;-78
2022/07/05 12:17:35;;;;;;;1.40;0.80;;;29.90;56.60;;;;;;5004740;28;20872;-79
2022/07/05 12:20:03;;;;;;;1.40;0.80;;;29.70;56.50;;;;;;5008697;28;20483;-78
2022/07/05 12:22:31;;;;;;;1.43;0.80;;;29.40;56.80;;;;;;4999689;28;20461;-79
2022/07/05 12:24:58;;;;;;;1.73;1.30;;;29.40;57.20;;;;;;4995331;28;20849;-79
2022/07/05 12:27:26;;;;;;;1.47;0.80;;;29.50;56.60;;;;;;4994001;28;20494;-80
2022/07/05 12:29:53;;;;;;;1.40;0.80;;;29.70;57.90;;;;;;4993284;28;20492;-78
2022/07/05 12:32:20;;;;;;;1.40;0.90;;;30.10;58.00;;;;;;5002113;28;20460;-79
2022/07/05 12:34:49;;;;;;;1.47;0.80;;;30.60;55.30;;;;;;5013126;28;20495;-79
2022/07/05 12:37:21;;;;;;;1.40;0.80;;;31.00;54.50;;;;;;5011648;28;20939;-79
2022/07/05 12:39:49;;;;;;;1.47;0.80;;;31.10;54.20;;;;;;5013418;28;20484;-80
2022/07/05 12:42:32;;;;;;;1.47;0.80;;;31.30;55.20;;;;;;5013410;28;20632;-78
2022/07/05 12:45:13;;;;;;;1.43;0.90;;;31.20;53.80;;;;;;5012577;28;20209;-79
2022/07/05 12:47:53;;;;;;;1.43;0.80;;;31.10;55.30;;;;;;5006262;28;20220;-78
2022/07/05 12:50:23;;;;;;;1.40;0.80;;;31.30;55.10;;;;;;5012342;28;20228;-78
2022/07/05 12:58:01;;;;;;;1.47;0.80;;;31.60;54.60;;;;;;4996776;28;20201;-81
2022/07/05 12:58:45;;;;;;;1.40;0.80;;;31.90;55.00;;;;;;5022639;28;20663;-79
2022/07/05 13:01:23;;;;;;;1.47;0.87;;;31.80;53.50;;;;;;5003996;28;20232;-79
2022/07/05 13:04:02;;;;;;;1.47;0.80;;;31.50;53.60;;;;;;5014854;28;20196;-79
2022/07/05 13:06:50;;;;;;;1.40;0.80;;;31.50;54.40;;;;;;4998152;28;20205;-78
2022/07/05 13:09:30;;;;;;;1.40;0.80;;;31.40;53.80;;;;;;5013204;28;20315;-80
2022/07/05 13:12:11;;;;;;;1.40;0.80;;;31.30;53.80;;;;;;5009553;28;20723;-79
2022/07/05 13:14:40;;;;;;;1.40;0.80;;;31.40;53.30;;;;;;5017545;28;20629;-80